Time;durP1;ratioP1;P1;durP2;ratioP2;P2;SDS_P1;SDS_P2;PMS_P1;PMS_P2;Temp;Humidity;BMP_temperature;BMP_pressure;BME280_temperature;BME280_humidity;BME280_pressure;Samples;Min_cycle;Max_cycle;Signal;HPM_P1;HPM_P2
2021/10/26 00:00:49;;;;;;;31.27;16.42;;;;;;;3.11;60.18;143031.77;1834912;77;22125;-59
2021/10/26 00:03:30;;;;;;;32.80;17.50;;;;;;;3.09;60.32;143026.78;1853433;77;22140;-55
2021/10/26 00:06:11;;;;;;;36.73;16.60;;;;;;;3.06;60.46;143019.30;1853479;77;22136;-58
2021/10/26 00:08:46;;;;;;;32.33;14.90;;;;;;;3.01;60.58;143008.08;1834876;77;22626;-56
2021/10/26 00:11:21;;;;;;;35.92;17.02;;;;;;;3.00;60.81;143004.31;1834847;77;22192;-57
2021/10/26 00:13:56;;;;;;;33.02;15.38;;;;;;;3.00;60.87;143005.59;1834930;77;22136;-58
2021/10/26 00:16:51;;;;;;;30.25;15.48;;;;;;;2.98;61.18;142999.38;1834986;77;22242;-56
2021/10/26 00:19:26;;;;;;;36.65;15.95;;;;;;;2.96;61.25;142994.38;1834938;77;22129;-57
2021/10/26 00:22:02;;;;;;;35.25;18.40;;;;;;;2.94;61.33;142990.63;1819283;77;28458;-59
2021/10/26 00:24:37;;;;;;;30.57;17.20;;;;;;;3.01;61.34;143006.84;1837733;77;28020;-56
2021/10/26 00:27:30;;;;;;;32.40;17.48;;;;;;;3.05;61.31;143016.78;1834877;77;22133;-60
2021/10/26 00:30:07;;;;;;;34.08;15.70;;;;;;;3.01;61.38;143008.08;1834899;77;22165;-54
2021/10/26 00:32:48;;;;;;;29.72;16.17;;;;;;;3.00;61.48;143005.59;1834072;77;22188;-59
2021/10/26 00:35:43;;;;;;;34.33;17.30;;;;;;;2.97;61.57;142996.84;1834902;77;22176;-55
2021/10/26 00:38:18;;;;;;;35.50;17.60;;;;;;;2.96;61.67;142994.38;1834928;77;22478;-55
2021/10/26 00:40:53;;;;;;;35.00;16.97;;;;;;;2.92;61.66;142984.39;1835020;77;22132;-59
2021/10/26 00:43:29;;;;;;;31.60;16.87;;;;;;;2.91;61.70;142981.92;1834937;77;22214;-57
2021/10/26 00:46:04;;;;;;;36.95;17.00;;;;;;;2.90;61.82;142979.41;1853391;77;22180;-58
2021/10/26 00:49:01;;;;;;;33.28;18.87;;;;;;;2.85;61.84;142966.94;1819225;77;28503;-58
2021/10/26 00:51:38;;;;;;;36.20;18.70;;;;;;;2.88;61.90;142974.45;1853493;77;22128;-58
2021/10/26 00:54:13;;;;;;;36.10;17.45;;;;;;;2.86;61.89;142969.45;1834908;77;22249;-56
2021/10/26 00:57:11;;;;;;;39.23;18.60;;;;;;;2.82;61.99;142961.98;1834702;77;22651;-57
2021/10/26 01:00:10;;;;;;;34.05;17.73;;;;;;;2.79;62.03;142954.47;1853462;77;22148;-59
2021/10/26 01:03:04;;;;;;;35.63;18.02;;;;;;;2.75;62.15;142944.53;1853397;77;22131;-60
2021/10/26 01:05:39;;;;;;;38.65;17.45;;;;;;;2.72;62.31;142935.78;1853471;77;22136;-59
2021/10/26 01:08:14;;;;;;;37.05;18.62;;;;;;;2.70;62.38;142932.08;1853489;77;22159;-59
2021/10/26 01:10:51;;;;;;;40.45;18.60;;;;;;;2.68;62.48;142927.08;1834950;77;22598;-58
2021/10/26 01:13:27;;;;;;;38.45;19.32;;;;;;;2.67;62.58;142924.61;1853443;77;22136;-57
2021/10/26 01:16:22;;;;;;;38.60;21.17;;;;;;;2.67;62.69;142923.33;1819224;77;28127;-60
2021/10/26 01:18:57;;;;;;;42.53;20.45;;;;;;;2.71;62.73;142934.55;1814605;77;22202;-59
2021/10/26 01:21:32;;;;;;;37.85;21.17;;;;;;;2.69;62.75;142929.56;1819329;77;28425;-55
2021/10/26 01:24:14;;;;;;;37.20;19.12;;;;;;;2.73;62.79;142938.31;1834085;77;22188;-60
2021/10/26 01:26:49;;;;;;;37.38;19.02;;;;;;;2.66;62.91;142920.86;1834959;77;22140;-60
2021/10/26 01:29:25;;;;;;;36.83;18.15;;;;;;;2.61;63.01;142910.88;1834682;77;22578;-56
2021/10/26 01:32:05;;;;;;;42.40;19.92;;;;;;;2.58;63.15;142902.17;1853479;77;22549;-58
2021/10/26 01:34:41;;;;;;;37.90;20.77;;;;;;;2.55;63.26;142894.70;1835022;77;22570;-57
2021/10/26 01:37:16;;;;;;;37.25;20.17;;;;;;;2.52;63.39;142887.19;1819324;77;28424;-57
2021/10/26 01:40:11;;;;;;;39.30;20.43;;;;;;;2.55;63.41;142894.70;1834872;77;22157;-57
2021/10/26 01:42:46;;;;;;;36.75;21.15;;;;;;;2.50;63.59;142883.48;1837713;77;28411;-56
2021/10/26 01:45:41;;;;;;;35.05;20.02;;;;;;;2.52;63.54;142887.19;1853420;77;22131;-59
2021/10/26 01:48:15;;;;;;;41.85;20.10;;;;;;;2.49;63.60;142879.72;1834920;77;22252;-57
2021/10/26 01:50:50;;;;;;;36.70;18.50;;;;;;;2.47;63.66;142874.73;1853490;77;22163;-57
2021/10/26 01:53:44;;;;;;;41.90;19.27;;;;;;;2.44;63.73;142867.27;1853481;77;22131;-56
2021/10/26 01:56:19;;;;;;;36.95;18.32;;;;;;;2.42;63.76;142862.28;1834951;77;22157;-58
2021/10/26 01:58:54;;;;;;;40.85;20.25;;;;;;;2.41;63.80;142859.81;1834952;77;22571;-59
2021/10/26 02:01:29;;;;;;;33.58;17.82;;;;;;;2.39;63.90;142857.33;1853464;77;22136;-59
2021/10/26 02:04:05;;;;;;;37.03;18.25;;;;;;;2.38;63.96;142854.81;1834920;77;22157;-56
2021/10/26 02:06:40;;;;;;;38.35;17.57;;;;;;;2.36;64.06;142849.81;1834932;77;22140;-57
2021/10/26 02:09:35;;;;;;;39.98;19.12;;;;;;;2.34;64.08;142843.59;1853447;77;22156;-56
2021/10/26 02:12:11;;;;;;;41.05;19.62;;;;;;;2.32;64.19;142839.88;1834932;77;22132;-59
2021/10/26 02:14:46;;;;;;;36.60;19.95;;;;;;;2.30;64.24;142834.89;1800666;79;22180;-58
2021/10/26 02:17:42;;;;;;;36.83;19.62;;;;;;;2.29;64.36;142832.42;1834858;77;22589;-56
2021/10/26 02:20:36;;;;;;;30.68;16.67;;;;;;;2.29;64.38;142832.42;1834900;77;22124;-57
2021/10/26 02:23:11;;;;;;;34.13;18.27;;;;;;;2.28;64.42;142829.91;1853472;77;22156;-59
2021/10/26 02:25:46;;;;;;;38.33;18.57;;;;;;;2.28;64.53;142829.91;1834921;77;22156;-56
2021/10/26 02:28:21;;;;;;;33.00;18.73;;;;;;;2.26;64.58;142823.67;1834931;77;22132;-58
2021/10/26 02:30:56;;;;;;;38.50;17.23;;;;;;;2.27;64.65;142826.19;1835059;77;22129;-60
2021/10/26 02:33:30;;;;;;;36.30;17.32;;;;;;;2.25;64.70;142822.44;1835115;77;22144;-55
2021/10/26 02:36:07;;;;;;;33.58;18.20;;;;;;;2.25;64.80;142821.20;1853456;77;22154;-57
2021/10/26 02:39:04;;;;;;;35.10;17.27;;;;;;;2.22;64.91;142814.97;1853476;77;22160;-55
2021/10/26 02:41:59;;;;;;;34.30;18.05;;;;;;;2.19;64.97;142807.52;1835098;77;22160;-58
2021/10/26 02:44:33;;;;;;;35.25;17.85;;;;;;;2.16;65.11;142800.00;1853458;77;22136;-57
2021/10/26 02:47:09;;;;;;;35.03;17.20;;;;;;;2.13;65.24;142792.53;1834794;77;22232;-57
2021/10/26 02:49:44;;;;;;;37.50;18.27;;;;;;;2.12;65.27;142791.31;1834998;77;22152;-57
2021/10/26 02:52:38;;;;;;;32.65;16.77;;;;;;;2.13;65.42;142792.53;1853461;77;22155;-56
2021/10/26 02:55:14;;;;;;;33.35;17.57;;;;;;;2.11;65.44;142787.55;1834870;77;22151;-56
2021/10/26 02:58:07;;;;;;;38.13;18.02;;;;;;;2.09;65.52;142782.61;1834900;77;22586;-56
2021/10/26 03:00:45;;;;;;;32.28;16.85;;;;;;;2.09;65.57;142782.61;1834742;77;22583;-57
2021/10/26 03:03:20;;;;;;;30.20;18.17;;;;;;;2.08;65.69;142780.09;1834855;77;22591;-60
2021/10/26 03:05:55;;;;;;;35.68;19.82;;;;;;;2.06;65.64;142775.09;1835015;77;22243;-55
2021/10/26 03:08:31;;;;;;;34.85;18.75;;;;;;;2.05;65.79;142772.62;1837751;77;28442;-57
2021/10/26 03:11:07;;;;;;;31.65;17.48;;;;;;;2.08;65.81;142780.09;1819219;77;28443;-60
2021/10/26 03:13:41;;;;;;;32.20;16.25;;;;;;;2.12;65.65;142790.06;1853550;77;22574;-56
2021/10/26 03:16:18;;;;;;;33.70;18.10;;;;;;;2.13;65.59;142792.53;1834697;77;22631;-57
2021/10/26 03:18:52;;;;;;;29.52;16.32;;;;;;;2.13;65.60;142792.53;1834955;77;22607;-57
2021/10/26 03:21:27;;;;;;;30.62;16.52;;;;;;;2.13;65.55;142792.53;1835129;77;22555;-58
2021/10/26 03:24:03;;;;;;;32.73;16.52;;;;;;;2.13;65.57;142792.53;1835065;77;22777;-58
2021/10/26 03:26:39;;;;;;;31.05;15.18;;;;;;;2.15;65.57;142797.53;1834913;77;20448;-55
2021/10/26 03:29:32;;;;;;;30.55;16.17;;;;;;;2.14;65.55;142795.06;1853415;77;22313;-56
2021/10/26 03:32:07;;;;;;;30.27;15.43;;;;;;;2.14;65.62;142796.30;1834914;77;22555;-59
2021/10/26 03:34:43;;;;;;;28.07;15.90;;;;;;;2.13;65.70;142793.78;1834898;77;22145;-59
2021/10/26 03:37:40;;;;;;;29.18;16.25;;;;;;;2.12;65.76;142790.06;1819227;77;28066;-57
2021/10/26 03:40:16;;;;;;;26.12;14.55;;;;;;;2.17;65.75;142802.53;1834963;77;22126;-57
2021/10/26 03:42:51;;;;;;;27.55;14.83;;;;;;;2.17;65.69;142802.53;1853490;77;22362;-57
2021/10/26 03:45:26;;;;;;;27.15;15.68;;;;;;;2.20;65.63;142808.75;1834880;77;22132;-58
2021/10/26 03:48:01;;;;;;;24.95;14.47;;;;;;;2.21;65.65;142812.45;1834875;77;22136;-56
2021/10/26 03:50:56;;;;;;;25.70;14.93;;;;;;;2.20;65.72;142808.75;1834794;77;22128;-56
2021/10/26 03:53:31;;;;;;;26.60;13.70;;;;;;;2.17;65.81;142802.53;1834905;77;22160;-58
2021/10/26 03:56:06;;;;;;;25.48;14.05;;;;;;;2.16;65.88;142800.00;1853478;77;22226;-56
2021/10/26 03:59:04;;;;;;;35.23;16.02;;;;;;;2.17;65.81;142803.77;1834913;77;22204;-57
2021/10/26 04:01:58;;;;;;;27.50;16.15;;;;;;;2.16;65.88;142801.28;1834888;77;22156;-56
2021/10/26 04:04:34;;;;;;;36.90;15.00;;;;;;;2.16;66.01;142800.00;1853467;77;22554;-56
2021/10/26 04:07:10;;;;;;;37.45;15.88;;;;;;;2.14;66.11;142795.06;1853594;77;22231;-56
2021/10/26 04:12:24;;;;;;;28.47;15.38;;;;;;;2.16;66.09;142800.00;1834907;77;22132;-57
2021/10/26 04:15:00;;;;;;;28.12;15.08;;;;;;;2.17;66.10;142802.53;1834956;77;22622;-55
2021/10/26 04:17:54;;;;;;;27.90;15.23;;;;;;;2.17;66.08;142802.53;1834836;77;22209;-56
2021/10/26 04:20:35;;;;;;;33.15;15.68;;;;;;;2.15;66.13;142798.77;1834111;77;22164;-57
2021/10/26 04:23:10;;;;;;;30.90;15.93;;;;;;;2.15;66.18;142797.53;1834981;77;22157;-55
2021/10/26 04:25:45;;;;;;;31.17;17.57;;;;;;;2.14;66.17;142795.06;1837729;77;28012;-56
2021/10/26 04:28:22;;;;;;;31.48;16.80;;;;;;;2.16;66.24;142800.00;1819251;77;27971;-55
2021/10/26 04:31:02;;;;;;;30.43;15.28;;;;;;;2.23;66.13;142817.45;1834841;77;22167;-57
2021/10/26 04:33:57;;;;;;;33.33;16.67;;;;;;;2.22;66.12;142814.97;1834822;77;22590;-55
2021/10/26 04:36:50;;;;;;;27.42;15.45;;;;;;;2.20;66.20;142808.75;1834904;77;22160;-59
2021/10/26 04:39:28;;;;;;;32.25;16.55;;;;;;;2.16;66.28;142800.00;1853296;77;22306;-56
2021/10/26 04:42:22;;;;;;;29.05;15.98;;;;;;;2.16;66.34;142800.00;1831997;77;22157;-56
2021/10/26 04:44:57;;;;;;;32.55;15.13;;;;;;;2.15;66.44;142797.53;1819016;77;22179;-57
2021/10/26 04:47:31;;;;;;;32.23;15.72;;;;;;;2.13;66.49;142793.78;1820517;77;22148;-56
2021/10/26 04:50:07;;;;;;;26.52;15.45;;;;;;;2.15;66.57;142797.53;1853437;77;22214;-57
2021/10/26 04:52:42;;;;;;;30.08;16.75;;;;;;;2.16;66.56;142801.28;1837756;77;27993;-57
2021/10/26 04:55:17;;;;;;;28.75;16.32;;;;;;;2.24;66.47;142819.97;1834885;77;22160;-58
2021/10/26 04:58:12;;;;;;;31.45;16.23;;;;;;;2.25;66.38;142821.20;1834718;77;22160;-55
2021/10/26 05:00:47;;;;;;;27.37;15.83;;;;;;;2.26;66.37;142824.91;1834888;77;22618;-57
2021/10/26 05:03:22;;;;;;;31.25;16.32;;;;;;;2.31;66.34;142836.12;1834841;77;22580;-56
2021/10/26 05:05:57;;;;;;;25.88;15.08;;;;;;;2.34;66.22;142844.87;1853394;77;22132;-59
2021/10/26 05:08:54;;;;;;;32.88;15.68;;;;;;;2.34;66.16;142844.87;1834718;77;22184;-58
2021/10/26 05:11:29;;;;;;;31.80;15.30;;;;;;;2.39;66.10;142856.05;1853371;77;22241;-56
2021/10/26 05:14:23;;;;;;;27.98;14.60;;;;;;;2.49;65.85;142879.72;1853389;77;22160;-58
2021/10/26 05:17:29;;;;;;;27.05;15.88;;;;;;;3.22;64.73;143059.17;1834831;77;22160;-56
2021/10/26 05:20:46;;;;;;;25.10;14.13;;;;;;;4.61;61.42;143395.97;1817600;77;22219;-58
2021/10/26 05:23:53;;;;;;;22.65;15.30;;;;;;;5.82;57.61;143693.11;1834690;77;22203;-56
2021/10/26 05:26:35;;;;;;;23.75;13.45;;;;;;;6.52;53.92;143863.14;1834699;77;22160;-57
2021/10/26 05:29:11;;;;;;;26.93;14.40;;;;;;;6.94;52.58;143965.64;1834913;77;22157;-62
2021/10/26 05:32:11;;;;;;;29.23;15.58;;;;;;;7.57;51.29;144120.75;1837663;77;28025;-54
2021/10/26 05:35:05;;;;;;;24.43;14.03;;;;;;;8.56;48.36;144361.13;1834838;77;22167;-57
2021/10/26 05:37:40;;;;;;;26.82;15.43;;;;;;;9.13;46.93;144501.39;1814341;77;28184;-60
2021/10/26 05:40:21;;;;;;;28.02;15.03;;;;;;;9.78;45.07;144661.80;1829519;77;22266;-59
2021/10/26 05:42:56;;;;;;;24.60;14.20;;;;;;;9.95;43.90;144701.94;1815100;77;22630;-56
2021/10/26 05:45:31;;;;;;;27.07;14.40;;;;;;;10.08;43.76;144734.52;1829921;77;22143;-57
2021/10/26 05:48:05;;;;;;;25.40;13.40;;;;;;;10.65;42.89;144875.00;1817089;77;22164;-56
2021/10/26 05:50:40;;;;;;;26.95;16.12;;;;;;;10.97;41.44;144952.80;1820339;77;22199;-59
2021/10/26 05:53:34;;;;;;;22.70;13.65;;;;;;;11.23;41.02;145016.78;1816684;77;22172;-57
2021/10/26 05:56:09;;;;;;;21.87;13.18;;;;;;;11.79;40.65;145153.59;1832288;77;22557;-58
2021/10/26 05:58:45;;;;;;;24.50;15.78;;;;;;;12.32;38.76;145284.25;1801683;77;28165;-56
2021/10/26 06:01:22;;;;;;;24.25;13.95;;;;;;;12.79;38.10;145399.78;1830784;77;22682;-59
2021/10/26 06:03:57;;;;;;;21.97;14.05;;;;;;;13.31;37.01;145526.80;1825821;77;22183;-60
2021/10/26 06:06:52;;;;;;;25.60;14.60;;;;;;;13.31;36.52;145525.55;1817448;77;22192;-57
2021/10/26 06:09:46;;;;;;;25.30;14.25;;;;;;;13.85;35.83;145658.80;1828517;77;22617;-57
2021/10/26 06:12:28;;;;;;;20.77;13.40;;;;;;;14.34;34.88;145780.78;1816211;77;22165;-57
2021/10/26 06:15:07;;;;;;;25.90;13.55;;;;;;;14.37;34.42;145785.81;1818027;77;22197;-59
2021/10/26 06:17:42;;;;;;;29.75;14.63;;;;;;;14.61;33.95;145845.02;1823148;77;22148;-59
2021/10/26 06:20:46;;;;;;;27.77;15.30;;;;;;;14.78;33.30;145887.77;1832620;77;22216;-57
2021/10/26 06:23:23;;;;;;;29.57;14.15;;;;;;;14.80;33.39;145892.81;1821427;77;22193;-57
2021/10/26 06:25:59;;;;;;;29.27;15.98;;;;;;;14.82;33.50;145897.84;1833219;77;22160;-58
2021/10/26 06:28:35;;;;;;;27.05;14.98;;;;;;;14.65;33.72;145855.06;1820629;77;22171;-59
2021/10/26 06:31:30;;;;;;;26.00;14.85;;;;;;;15.20;33.23;145990.98;1819006;77;22150;-56
2021/10/26 06:34:05;;;;;;;28.75;16.82;;;;;;;15.61;32.41;146092.95;1837768;77;38719;-58
2021/10/26 06:36:59;;;;;;;29.07;17.05;;;;;;;16.26;31.64;146252.97;1833396;77;22191;-57
2021/10/26 06:39:34;;;;;;;30.15;16.65;;;;;;;16.91;30.73;146411.78;1834904;77;22152;-61
2021/10/26 06:42:27;;;;;;;27.52;16.02;;;;;;;17.24;29.87;146493.70;1823719;77;22196;-56
2021/10/26 06:45:04;;;;;;;34.98;16.55;;;;;;;17.27;30.17;146500.02;1833426;77;22605;-56
2021/10/26 06:47:47;;;;;;;37.63;17.70;;;;;;;17.42;29.76;146537.83;1853379;77;22198;-58
2021/10/26 06:50:22;;;;;;;32.75;17.23;;;;;;;17.55;29.45;146569.36;1834902;77;22555;-58
2021/10/26 06:53:39;;;;;;;40.25;17.37;;;;;;;17.53;29.70;146565.61;1834714;77;22168;-62
2021/10/26 06:56:52;;;;;;;43.73;19.32;;;;;;;17.72;29.18;146610.98;1834687;77;22303;-60
2021/10/26 06:59:29;;;;;;;48.95;20.30;;;;;;;17.36;29.78;146522.72;1834653;77;22172;-59
2021/10/26 07:02:50;;;;;;;44.30;20.65;;;;;;;17.13;29.85;146466.00;1833970;77;22690;-58
2021/10/26 07:05:26;;;;;;;42.50;18.87;;;;;;;16.88;30.34;146404.22;1834841;77;22148;-57
2021/10/26 07:08:00;;;;;;;37.70;18.45;;;;;;;17.12;30.20;146464.75;1835010;77;22124;-61
2021/10/26 07:10:57;;;;;;;40.55;18.02;;;;;;;17.11;30.24;146462.19;1853485;77;22178;-58
2021/10/26 07:13:51;;;;;;;31.60;17.37;;;;;;;17.76;29.60;146621.09;1819245;77;28014;-59
2021/10/26 07:16:45;;;;;;;28.15;14.38;;;;;;;17.60;29.47;146580.72;1834850;77;22155;-62
2021/10/26 07:19:20;;;;;;;30.72;15.30;;;;;;;17.48;29.73;146553.00;1834910;77;22570;-61
2021/10/26 07:22:35;;;;;;;24.60;12.90;;;;;;;18.12;29.14;146709.44;1834795;77;22575;-61
2021/10/26 07:25:37;;;;;;;24.00;13.43;;;;;;;18.05;29.05;146691.77;1834765;77;22160;-60
2021/10/26 07:28:31;;;;;;;16.95;11.15;;;;;;;17.68;29.55;146602.19;1853496;77;22127;-61
2021/10/26 07:31:09;;;;;;;22.40;12.68;;;;;;;18.03;29.31;146686.70;1834828;77;22147;-59
2021/10/26 07:33:55;;;;;;;20.48;11.03;;;;;;;18.80;28.55;146877.27;1833921;77;22156;-59
2021/10/26 07:36:52;;;;;;;19.40;10.82;;;;;;;19.29;27.66;146998.48;1834007;77;22602;-58
2021/10/26 07:42:03;;;;;;;17.23;10.70;;;;;;;19.91;26.84;147151.33;1834995;77;22132;-58
2021/10/26 07:44:49;;;;;;;17.62;10.00;;;;;;;19.38;27.44;147019.94;1833939;77;22180;-59
2021/10/26 07:47:39;;;;;;;16.93;11.33;;;;;;;19.03;27.80;146934.06;1819504;77;28130;-59
2021/10/26 07:50:15;;;;;;;16.73;10.30;;;;;;;19.26;27.47;146990.92;1879376;75;22109;-63
2021/10/26 07:52:50;;;;;;;12.23;8.53;;;;;;;19.01;27.83;146930.31;1853179;77;22155;-62
2021/10/26 07:55:25;;;;;;;13.28;8.98;;;;;;;18.74;27.95;146862.09;1853319;77;22241;-62
2021/10/26 07:58:00;;;;;;;11.48;7.50;;;;;;;18.58;28.33;146824.23;1834945;77;22160;-62
2021/10/26 08:00:35;;;;;;;10.95;7.12;;;;;;;18.82;27.93;146883.58;1834927;77;22161;-61
2021/10/26 08:03:10;;;;;;;12.63;7.47;;;;;;;18.61;27.95;146830.55;1834984;77;22164;-60
2021/10/26 08:06:07;;;;;;;15.83;7.80;;;;;;;18.29;28.50;146752.28;1834933;77;22172;-61
2021/10/26 08:09:01;;;;;;;13.68;8.10;;;;;;;18.08;28.81;146699.33;1834878;77;22185;-58
2021/10/26 08:11:38;;;;;;;19.65;9.58;;;;;;;17.89;29.18;146653.94;1834743;77;22175;-60
2021/10/26 08:14:13;;;;;;;14.43;8.35;;;;;;;17.65;29.56;146593.33;1834735;77;22160;-58
2021/10/26 08:17:09;;;;;;;16.87;8.88;;;;;;;17.66;29.74;146595.88;1849877;77;22287;-61
2021/10/26 08:20:04;;;;;;;14.15;9.35;;;;;;;17.10;30.46;146459.69;1824552;77;22297;-61
2021/10/26 08:22:46;;;;;;;17.30;9.53;;;;;;;16.64;31.07;146346.22;1834075;77;22180;-60
2021/10/26 08:25:31;;;;;;;14.80;7.70;;;;;;;16.16;31.89;146226.53;1834565;77;22586;-59
2021/10/26 08:28:16;;;;;;;19.17;8.50;;;;;;;15.63;32.24;146096.75;1853860;77;22202;-56
2021/10/26 08:31:18;;;;;;;14.68;7.97;;;;;;;14.68;33.69;145862.59;1853340;77;22160;-57
2021/10/26 08:37:15;;;;;;;16.80;8.00;;;;;;;14.08;34.85;145716.63;1834113;77;22606;-56
2021/10/26 08:39:56;;;;;;;14.90;8.08;;;;;;;13.90;35.28;145671.37;1853479;77;22176;-58
2021/10/26 08:42:53;;;;;;;14.47;8.75;;;;;;;13.36;36.14;145538.12;1834692;77;22157;-59
2021/10/26 08:45:28;;;;;;;13.05;7.45;;;;;;;13.14;36.63;145484.00;1834633;77;22219;-60
2021/10/26 08:48:06;;;;;;;18.82;8.13;;;;;;;12.75;37.45;145389.77;1834890;77;22157;-61
2021/10/26 08:51:06;;;;;;;15.13;7.55;;;;;;;12.16;38.62;145245.31;1853235;77;22155;-57
2021/10/26 08:53:44;;;;;;;12.58;7.83;;;;;;;11.80;39.32;145156.09;1853467;77;22171;-57
2021/10/26 08:57:01;;;;;;;15.08;8.43;;;;;;;11.46;40.21;145073.25;1833989;77;22631;-59
2021/10/26 08:59:36;;;;;;;14.45;8.43;;;;;;;11.12;41.13;144987.91;1834914;77;22180;-59
2021/10/26 09:02:41;;;;;;;14.13;8.70;;;;;;;10.65;42.41;144873.75;1834680;77;22205;-59
2021/10/26 09:05:21;;;;;;;15.53;8.93;;;;;;;10.30;43.27;144787.22;1837820;77;28393;-56
2021/10/26 09:08:05;;;;;;;18.35;8.78;;;;;;;10.07;44.07;144731.98;1834907;77;22136;-58
2021/10/26 09:10:41;;;;;;;15.25;8.18;;;;;;;9.84;44.75;144675.58;1834766;77;22564;-59
2021/10/26 09:16:42;;;;;;;17.35;9.50;;;;;;;9.52;45.68;144596.64;1853520;77;22180;-60
2021/10/26 09:19:25;;;;;;;13.03;8.15;;;;;;;9.46;45.60;144582.83;1834851;77;22535;-59
2021/10/26 09:22:35;;;;;;;16.57;8.83;;;;;;;9.51;45.86;144594.11;1834897;77;22566;-60
2021/10/26 09:25:12;;;;;;;18.92;9.30;;;;;;;9.57;45.84;144609.17;1834954;77;22153;-60
2021/10/26 09:28:12;;;;;;;18.48;10.00;;;;;;;9.60;45.54;144615.44;1819435;77;27975;-57
2021/10/26 09:31:07;;;;;;;16.15;8.08;;;;;;;9.63;45.41;144624.19;1834949;77;22594;-57
2021/10/26 09:33:45;;;;;;;17.80;7.10;;;;;;;9.56;45.35;144607.87;1834972;77;22175;-58
2021/10/26 09:36:41;;;;;;;16.15;7.70;;;;;;;9.57;45.16;144609.17;1834775;77;22204;-59
2021/10/26 09:39:35;;;;;;;19.57;8.98;;;;;;;9.63;45.19;144624.19;1819328;77;27985;-57
2021/10/26 09:42:11;;;;;;;17.92;9.90;;;;;;;9.70;45.28;144641.75;1819414;77;27997;-59
2021/10/26 09:44:50;;;;;;;18.05;9.78;;;;;;;9.83;45.32;144671.84;1819429;77;38720;-57
2021/10/26 09:47:38;;;;;;;18.27;8.90;;;;;;;9.93;45.12;144698.16;1834119;77;22148;-58
2021/10/26 09:50:36;;;;;;;13.35;7.55;;;;;;;9.95;45.26;144701.94;1853518;77;22582;-59
2021/10/26 09:53:34;;;;;;;13.48;7.33;;;;;;;9.90;44.94;144689.41;1853657;77;22123;-57
2021/10/26 09:56:27;;;;;;;18.98;8.20;;;;;;;9.89;44.57;144686.86;1835056;77;22136;-57
2021/10/26 09:59:29;;;;;;;17.37;7.45;;;;;;;9.76;44.88;144656.78;1834155;77;22158;-58
2021/10/26 10:02:04;;;;;;;11.10;7.03;;;;;;;9.82;45.04;144669.31;1834976;77;20448;-57
2021/10/26 10:05:08;;;;;;;17.55;7.22;;;;;;;9.89;44.81;144686.86;1835047;77;22124;-59
2021/10/26 10:07:43;;;;;;;16.80;8.50;;;;;;;9.84;44.90;144674.33;1834950;77;22418;-59
2021/10/26 10:10:46;;;;;;;22.10;9.10;;;;;;;9.96;44.94;144704.42;1834892;77;22163;-58
2021/10/26 10:13:22;;;;;;;13.20;8.55;;;;;;;9.94;45.47;144699.39;1853636;77;22124;-60
2021/10/26 10:15:59;;;;;;;23.87;7.97;;;;;;;9.98;45.26;144710.69;1853517;77;22132;-59
2021/10/26 10:18:35;;;;;;;19.25;8.60;;;;;;;10.18;44.49;144758.34;1834905;77;22152;-60
2021/10/26 10:21:13;;;;;;;15.48;8.08;;;;;;;10.35;43.78;144799.75;1835003;77;22614;-59
2021/10/26 10:23:47;;;;;;;15.53;9.33;;;;;;;10.40;43.66;144813.53;1853485;77;22136;-57
2021/10/26 10:26:49;;;;;;;14.35;9.05;;;;;;;10.43;44.17;144819.80;1834973;77;22125;-58
2021/10/26 10:29:25;;;;;;;16.35;8.83;;;;;;;10.49;44.14;144834.87;1834937;77;22160;-61
2021/10/26 10:32:02;;;;;;;14.87;9.45;;;;;;;10.50;44.05;144837.38;1834805;77;22233;-59
2021/10/26 10:35:12;;;;;;;14.80;7.60;;;;;;;10.60;43.68;144862.45;1834792;77;22136;-57
2021/10/26 10:38:13;;;;;;;14.53;8.78;;;;;;;10.74;42.65;144895.09;1834976;77;22124;-58
2021/10/26 10:41:28;;;;;;;15.85;9.38;;;;;;;10.83;42.95;144917.66;1818693;77;28016;-60
2021/10/26 10:44:24;;;;;;;13.58;9.00;;;;;;;10.84;43.00;144920.19;1834955;77;22136;-58
2021/10/26 10:47:00;;;;;;;16.90;9.33;;;;;;;10.89;42.75;144932.73;1834933;77;22125;-58
2021/10/26 10:49:55;;;;;;;16.30;8.45;;;;;;;11.02;42.33;144965.34;1853562;77;22203;-59
2021/10/26 10:52:34;;;;;;;12.53;7.62;;;;;;;11.08;41.98;144980.37;1834955;77;22153;-58
2021/10/26 10:55:28;;;;;;;19.65;9.75;;;;;;;11.02;41.88;144965.34;1834978;77;22567;-58
2021/10/26 10:58:28;;;;;;;11.53;8.38;;;;;;;11.06;41.67;144974.09;1834977;77;22542;-59
2021/10/26 11:01:36;;;;;;;13.25;8.00;;;;;;;11.00;41.55;144960.31;1853599;77;22124;-60
2021/10/26 11:04:27;;;;;;;17.60;8.58;;;;;;;10.96;42.00;144950.25;1834995;77;22124;-61
2021/10/26 11:07:46;;;;;;;15.60;8.30;;;;;;;10.87;42.28;144927.70;1834951;77;22554;-57
2021/10/26 11:10:21;;;;;;;17.95;8.88;;;;;;;10.93;42.09;144942.75;1853534;77;22649;-56
2021/10/26 11:13:01;;;;;;;14.73;8.38;;;;;;;11.01;41.79;144962.80;1835046;77;22132;-61
2021/10/26 11:15:44;;;;;;;14.47;7.37;;;;;;;11.18;41.56;145002.98;1834935;77;22128;-56
2021/10/26 11:18:46;;;;;;;13.93;8.08;;;;;;;11.03;41.72;144966.59;1834794;77;22623;-56
2021/10/26 11:21:33;;;;;;;13.03;6.83;;;;;;;11.10;41.17;144982.92;1819243;77;22242;-57
2021/10/26 11:24:27;;;;;;;12.43;7.90;;;;;;;11.17;41.23;145000.44;1834988;77;22152;-58
2021/10/26 11:27:34;;;;;;;11.63;7.30;;;;;;;11.35;40.65;145045.66;1834804;77;22164;-59
2021/10/26 11:30:34;;;;;;;13.15;7.47;;;;;;;11.47;40.09;145075.78;1834780;77;22160;-59
2021/10/26 11:33:31;;;;;;;14.83;7.10;;;;;;;11.62;39.34;145112.16;1834638;77;22580;-57
2021/10/26 11:36:34;;;;;;;13.83;8.10;;;;;;;11.50;39.75;145083.31;1853236;77;22639;-56
2021/10/26 11:39:29;;;;;;;14.40;8.28;;;;;;;11.63;39.38;145113.44;1830804;77;28090;-58
2021/10/26 11:42:23;;;;;;;15.08;8.15;;;;;;;11.81;39.23;145157.38;1820449;77;22215;-57
2021/10/26 11:45:17;;;;;;;13.08;7.10;;;;;;;11.80;38.90;145156.09;1817681;77;22176;-58
2021/10/26 11:48:10;;;;;;;15.60;7.62;;;;;;;11.54;39.42;145090.83;1829849;77;22172;-57
2021/10/26 11:50:52;;;;;;;12.35;6.53;;;;;;;11.49;39.35;145080.77;1815983;77;22614;-62
2021/10/26 11:53:29;;;;;;;14.53;6.92;;;;;;;11.44;39.41;145068.22;1816421;77;22188;-57
2021/10/26 11:56:37;;;;;;;15.80;7.72;;;;;;;11.55;39.37;145093.33;1834977;77;22133;-58
2021/10/26 11:59:33;;;;;;;13.00;7.47;;;;;;;11.74;39.09;145141.03;1813043;77;22196;-59
2021/10/26 12:02:16;;;;;;;10.93;6.42;;;;;;;11.80;38.27;145154.84;1834602;77;22578;-57
2021/10/26 12:05:19;;;;;;;14.00;7.80;;;;;;;11.87;38.00;145173.72;1853142;77;22139;-57
2021/10/26 12:07:57;;;;;;;14.85;7.03;;;;;;;11.90;37.79;145181.25;1834426;77;22205;-57
2021/10/26 12:10:39;;;;;;;17.35;7.15;;;;;;;11.73;37.73;145138.55;1832757;77;22183;-57
2021/10/26 12:13:20;;;;;;;15.55;7.58;;;;;;;11.78;37.36;145151.09;1853254;77;22132;-58
2021/10/26 12:16:24;;;;;;;12.68;7.05;;;;;;;11.73;37.62;145139.80;1758532;81;21122;-60
2021/10/26 12:18:58;;;;;;;14.65;8.28;;;;;;;11.67;38.18;145123.45;1834872;77;22136;-59
2021/10/26 12:21:34;;;;;;;18.27;7.65;;;;;;;11.75;38.26;145143.53;1834683;77;22555;-58
2021/10/26 12:24:31;;;;;;;15.25;7.85;;;;;;;11.71;38.14;145134.77;1853441;77;22257;-55
2021/10/26 12:27:51;;;;;;;16.12;8.73;;;;;;;11.82;37.82;145159.88;1853348;77;22253;-59
2021/10/26 12:30:42;;;;;;;22.30;11.10;;;;;;;12.02;37.53;145208.89;1833998;77;22610;-58
2021/10/26 12:34:01;;;;;;;23.38;11.78;;;;;;;12.18;37.17;145247.81;1827231;77;22209;-61
2021/10/26 12:36:37;;;;;;;10.88;6.97;;;;;;;12.23;36.96;145261.63;1843263;77;22156;-59
2021/10/26 12:39:11;;;;;;;17.73;8.65;;;;;;;12.23;36.28;145260.38;1853450;77;22546;-58
2021/10/26 12:41:49;;;;;;;15.48;8.08;;;;;;;12.26;36.01;145269.19;1834757;77;22148;-56
2021/10/26 12:44:30;;;;;;;13.83;8.18;;;;;;;12.23;35.93;145261.63;1834076;77;22202;-58
2021/10/26 12:47:15;;;;;;;13.40;7.97;;;;;;;12.28;35.44;145274.17;1853449;77;22163;-60
2021/10/26 12:50:07;;;;;;;17.62;8.73;;;;;;;12.41;35.29;145304.33;1834821;77;22153;-59